createdAt,value
2023-04-11T00:00:51.841Z,12.30
2023-04-11T00:03:20.197Z,12.30
2023-04-11T00:05:46.964Z,14.10
2023-04-11T00:08:13.641Z,12.30
2023-04-11T00:10:40.457Z,12.30
2023-04-11T00:13:07.509Z,12.30
2023-04-11T00:15:34.795Z,12.20
2023-04-11T00:18:01.481Z,12.20
2023-04-11T00:20:28.206Z,13.30
2023-04-11T00:22:55.936Z,12.20
2023-04-11T00:25:22.686Z,12.10
2023-04-11T00:27:49.348Z,12.10
2023-04-11T00:30:16.806Z,12.10
2023-04-11T00:32:46.157Z,12.10
2023-04-11T00:35:12.877Z,12.20
2023-04-11T00:37:39.513Z,12.20
2023-04-11T00:40:06.747Z,12.20
2023-04-11T00:42:33.737Z,12.20
2023-04-11T00:45:00.499Z,12.30
2023-04-11T00:47:27.467Z,13.00
2023-04-11T00:49:54.237Z,12.20
2023-04-11T00:52:21.366Z,13.10
2023-04-11T00:54:48.462Z,12.20
2023-04-11T00:57:15.465Z,12.20
2023-04-11T00:59:42.874Z,12.20
2023-04-11T01:02:10.697Z,13.60
2023-04-11T01:04:37.440Z,12.20
2023-04-11T01:07:06.274Z,12.20
2023-04-11T01:09:34.495Z,12.20
2023-04-11T01:12:04.359Z,12.30
2023-04-11T01:14:31.144Z,12.10
2023-04-11T01:16:58.280Z,12.10
2023-04-11T01:19:26.695Z,12.00
2023-04-11T01:21:53.922Z,13.10
2023-04-11T01:24:20.741Z,11.90
2023-04-11T01:26:47.474Z,11.90
2023-04-11T01:29:14.470Z,11.80
2023-04-11T01:31:41.308Z,13.30
2023-04-11T01:34:08.048Z,11.80
2023-04-11T01:36:34.881Z,11.80
2023-04-11T01:39:01.571Z,11.70
2023-04-11T01:41:29.561Z,11.70
2023-04-11T01:43:56.604Z,11.70
2023-04-11T01:46:23.374Z,11.70
2023-04-11T01:48:50.646Z,11.60
2023-04-11T01:51:17.307Z,11.60
2023-04-11T01:53:46.050Z,11.50
2023-04-11T01:56:13.224Z,11.50
2023-04-11T01:58:40.048Z,11.40
2023-04-11T02:01:07.140Z,12.40
2023-04-11T02:03:33.912Z,11.30
2023-04-11T02:06:01.041Z,11.20
2023-04-11T02:08:27.705Z,11.10
2023-04-11T02:10:54.453Z,11.00
2023-04-11T02:13:21.033Z,10.90
2023-04-11T02:15:47.665Z,10.90
2023-04-11T02:18:14.371Z,10.80
2023-04-11T02:20:41.157Z,10.70
2023-04-11T02:23:07.762Z,10.70
2023-04-11T02:25:34.437Z,10.60
2023-04-11T02:28:01.167Z,10.60
2023-04-11T02:30:27.866Z,10.30
2023-04-11T02:32:54.578Z,10.10
2023-04-11T02:35:21.558Z,10.00
2023-04-11T02:37:48.336Z,9.80
2023-04-11T02:40:15.143Z,9.70
2023-04-11T02:42:43.543Z,9.60
2023-04-11T02:45:11.847Z,9.60
2023-04-11T02:47:39.432Z,9.50
2023-04-11T02:50:06.440Z,9.40
2023-04-11T02:52:33.951Z,9.30
2023-04-11T02:55:00.952Z,9.20
2023-04-11T02:57:27.879Z,9.10
2023-04-11T02:59:54.598Z,9.00
2023-04-11T03:02:23.610Z,9.00
2023-04-11T03:04:50.932Z,8.90
2023-04-11T03:07:17.775Z,8.90
2023-04-11T03:09:44.535Z,8.90
2023-04-11T03:12:11.595Z,8.90
2023-04-11T03:14:38.560Z,8.80
2023-04-11T03:17:05.560Z,8.80
2023-04-11T03:19:32.306Z,8.80
2023-04-11T03:22:00.375Z,8.70
2023-04-11T03:24:27.263Z,8.80
2023-04-11T03:26:53.864Z,8.80
2023-04-11T03:29:20.628Z,8.80
2023-04-11T03:31:47.297Z,8.80
2023-04-11T03:34:14.082Z,8.80
2023-04-11T03:36:40.817Z,8.80
2023-04-11T03:39:07.808Z,8.70
2023-04-11T03:41:34.648Z,8.70
2023-04-11T03:44:01.284Z,8.70
2023-04-11T03:46:27.997Z,8.80
2023-04-11T03:48:55.017Z,8.80
2023-04-11T03:51:22.016Z,8.60
2023-04-11T03:53:48.674Z,8.80
2023-04-11T03:56:15.512Z,8.80
2023-04-11T03:58:43.061Z,8.80
2023-04-11T04:01:09.698Z,8.80
2023-04-11T04:03:36.602Z,9.70
2023-04-11T04:06:03.515Z,8.80
2023-04-11T04:08:30.151Z,8.80
2023-04-11T04:10:56.687Z,8.80
2023-04-11T04:13:23.433Z,8.80
2023-04-11T04:15:51.498Z,8.90
2023-04-11T04:18:18.237Z,8.90
2023-04-11T04:20:44.836Z,8.90
2023-04-11T04:23:14.418Z,8.80
2023-04-11T04:25:42.320Z,8.70
2023-04-11T04:28:10.067Z,8.60
2023-04-11T04:30:38.343Z,8.60
2023-04-11T04:33:05.074Z,8.50
2023-04-11T04:35:31.759Z,10.50
2023-04-11T04:38:06.197Z,8.80
2023-04-11T04:40:33.045Z,8.40
2023-04-11T04:42:59.692Z,8.40
2023-04-11T04:45:26.698Z,8.20
2023-04-11T04:47:53.459Z,8.90
2023-04-11T04:50:20.843Z,8.10
2023-04-11T04:52:47.625Z,8.00
2023-04-11T04:55:14.681Z,8.10
2023-04-11T04:57:42.783Z,8.00
2023-04-11T05:00:11.649Z,8.00
2023-04-11T05:02:38.419Z,7.90
2023-04-11T05:05:05.397Z,7.90
2023-04-11T05:07:32.030Z,7.90
2023-04-11T05:09:58.628Z,7.80
2023-04-11T05:12:27.445Z,7.80
2023-04-11T05:14:55.536Z,7.80
2023-04-11T05:17:25.194Z,7.80
2023-04-11T05:19:52.361Z,7.70
2023-04-11T05:22:19.111Z,9.60
2023-04-11T05:24:45.848Z,7.60
2023-04-11T05:27:13.749Z,7.50
2023-04-11T05:29:40.738Z,7.50
2023-04-11T05:32:07.407Z,7.40
2023-04-11T05:34:34.500Z,7.30
2023-04-11T05:37:01.590Z,7.20
2023-04-11T05:39:28.249Z,7.20
2023-04-11T05:41:54.936Z,7.20
2023-04-11T05:44:21.719Z,7.20
2023-04-11T05:46:48.680Z,7.30
2023-04-11T05:49:15.710Z,7.30
2023-04-11T05:51:42.628Z,7.30
2023-04-11T05:54:09.308Z,7.20
2023-04-11T05:56:38.238Z,7.20
2023-04-11T05:59:04.944Z,7.20
2023-04-11T06:01:32.079Z,7.20
2023-04-11T06:03:59.081Z,7.30
2023-04-11T06:06:25.916Z,7.20
2023-04-11T06:08:52.606Z,7.20
2023-04-11T06:11:19.441Z,7.20
2023-04-11T06:13:46.108Z,7.20
2023-04-11T06:16:12.749Z,7.20
2023-04-11T06:18:39.663Z,7.20
2023-04-11T06:21:06.323Z,7.20
2023-04-11T06:23:32.946Z,7.30
2023-04-11T06:25:59.671Z,7.30
2023-04-11T06:28:26.353Z,7.40
2023-04-11T06:30:53.251Z,7.40
2023-04-11T06:33:20.330Z,7.40
2023-04-11T06:35:47.172Z,7.40
2023-04-11T06:38:13.811Z,7.50
2023-04-11T06:40:40.361Z,7.50
2023-04-11T06:43:07.323Z,7.60
2023-04-11T06:45:33.917Z,7.60
2023-04-11T06:48:01.031Z,7.60
2023-04-11T06:50:27.663Z,7.60
2023-04-11T06:52:54.343Z,7.60
2023-04-11T06:55:21.336Z,7.60
2023-04-11T06:57:48.035Z,7.60
2023-04-11T07:00:16.390Z,7.70
2023-04-11T07:02:44.788Z,7.70
2023-04-11T07:05:12.085Z,7.80
2023-04-11T07:07:39.006Z,7.80
2023-04-11T07:10:06.449Z,7.80
2023-04-11T07:12:33.088Z,7.90
2023-04-11T07:14:59.844Z,8.10
2023-04-11T07:17:26.542Z,8.10
2023-04-11T07:19:53.375Z,8.10
2023-04-11T07:22:20.109Z,8.70
2023-04-11T07:24:50.915Z,8.20
2023-04-11T07:27:17.674Z,8.20
2023-04-11T07:29:44.290Z,8.30
2023-04-11T07:32:10.972Z,8.40
2023-04-11T07:34:38.499Z,8.40
2023-04-11T07:37:05.118Z,8.50
2023-04-11T07:39:33.386Z,8.50
2023-04-11T07:42:00.023Z,8.50
2023-04-11T07:44:27.346Z,8.60
2023-04-11T07:46:54.065Z,8.60
2023-04-11T07:49:20.737Z,8.70
2023-04-11T07:51:47.388Z,10.30
2023-04-11T07:54:13.972Z,8.60
2023-04-11T07:56:40.701Z,8.60
2023-04-11T07:59:07.536Z,8.60
2023-04-11T08:01:34.480Z,8.50
2023-04-11T08:04:01.711Z,8.60
2023-04-11T08:06:29.415Z,8.60
2023-04-11T08:08:56.453Z,8.70
2023-04-11T08:11:23.013Z,8.70
2023-04-11T08:13:50.123Z,8.70
2023-04-11T08:16:16.839Z,8.80
2023-04-11T08:18:45.977Z,8.90
2023-04-11T08:21:13.040Z,9.10
2023-04-11T08:23:42.731Z,9.10
2023-04-11T08:26:10.743Z,10.80
2023-04-11T08:28:37.488Z,9.30
2023-04-11T08:31:04.860Z,9.30
2023-04-11T08:33:31.601Z,9.30
2023-04-11T08:35:58.379Z,10.10
2023-04-11T08:38:25.184Z,9.40
2023-04-11T08:40:51.929Z,9.40
2023-04-11T08:43:19.374Z,9.50
2023-04-11T08:45:46.416Z,9.70
2023-04-11T08:48:13.298Z,9.40
2023-04-11T08:50:41.346Z,9.50
2023-04-11T08:53:08.766Z,9.70
2023-04-11T08:55:36.663Z,9.70
2023-04-11T08:58:03.976Z,9.70
2023-04-11T09:00:32.513Z,9.80
2023-04-11T09:03:03.368Z,9.80
2023-04-11T09:05:34.200Z,9.90
2023-04-11T09:08:10.886Z,9.90
2023-04-11T09:10:38.296Z,10.10
2023-04-11T09:13:24.168Z,10.00
2023-04-11T09:16:04.432Z,9.90
2023-04-11T09:18:32.108Z,10.00
2023-04-11T09:21:00.077Z,10.20
2023-04-11T09:23:27.488Z,10.40
2023-04-11T09:25:54.168Z,10.30
2023-04-11T09:28:20.783Z,10.50
2023-04-11T09:30:51.564Z,12.40
2023-04-11T09:33:25.803Z,10.70
2023-04-11T09:35:53.825Z,10.70
2023-04-11T09:38:29.784Z,11.10
2023-04-11T09:40:56.738Z,10.40
2023-04-11T09:43:23.674Z,9.90
2023-04-11T09:46:07.151Z,12.50
2023-04-11T09:48:46.173Z,12.20
2023-04-11T09:53:40.393Z,9.90
2023-04-11T09:54:01.432Z,11.20
2023-04-11T09:56:28.886Z,10.00
2023-04-11T09:58:57.694Z,10.20
2023-04-11T10:01:25.065Z,10.40
2023-04-11T10:03:53.052Z,10.60
2023-04-11T10:06:31.506Z,13.30
2023-04-11T10:09:06.644Z,10.80
2023-04-11T10:11:33.436Z,10.80
2023-04-11T10:14:00.318Z,10.90
2023-04-11T10:16:28.691Z,12.20
2023-04-11T10:18:56.126Z,12.60
2023-04-11T10:21:28.881Z,13.20
2023-04-11T10:24:08.692Z,10.80
2023-04-11T10:26:54.228Z,10.70
2023-04-11T10:29:31.456Z,10.60
2023-04-11T10:32:13.461Z,10.50
2023-04-11T10:34:41.924Z,10.20
2023-04-11T10:37:09.712Z,10.10
2023-04-11T10:40:12.194Z,10.10
2023-04-11T10:42:46.607Z,10.10
2023-04-11T10:45:16.391Z,10.20
2023-04-11T10:47:43.355Z,10.20
2023-04-11T10:50:29.983Z,13.70
2023-04-11T10:52:57.594Z,13.10
2023-04-11T10:55:27.041Z,10.30
2023-04-11T10:58:04.098Z,12.00
2023-04-11T11:00:51.002Z,10.20
2023-04-11T11:03:19.595Z,10.40
2023-04-11T11:05:46.954Z,13.10
2023-04-11T11:08:13.838Z,12.80
2023-04-11T11:10:48.057Z,10.60
2023-04-11T11:13:15.861Z,10.60
2023-04-11T11:15:49.869Z,10.70
2023-04-11T11:18:17.933Z,10.70
2023-04-11T11:20:46.681Z,13.40
2023-04-11T11:23:13.378Z,10.70
2023-04-11T11:25:40.002Z,11.70
2023-04-11T11:28:08.333Z,11.70
2023-04-11T11:30:35.920Z,13.00
2023-04-11T11:33:16.333Z,12.10
2023-04-11T11:35:44.189Z,11.30
2023-04-11T11:38:11.425Z,13.80
2023-04-11T11:40:38.114Z,14.10
2023-04-11T11:43:04.855Z,14.40
2023-04-11T11:45:33.503Z,11.20
2023-04-11T11:48:00.200Z,13.70
2023-04-11T11:50:30.910Z,11.60
2023-04-11T11:53:14.191Z,11.60
2023-04-11T11:55:43.927Z,11.60
2023-04-11T11:58:11.164Z,13.70
2023-04-11T12:00:39.158Z,11.70
2023-04-11T12:03:10.246Z,11.40
2023-04-11T12:05:38.122Z,15.00
2023-04-11T12:08:07.484Z,14.10
2023-04-11T12:10:45.732Z,11.80
2023-04-11T12:13:13.522Z,12.00
2023-04-11T12:15:41.612Z,13.90
2023-04-11T12:18:08.445Z,12.40
2023-04-11T12:20:35.170Z,15.40
2023-04-11T12:23:01.922Z,14.10
2023-04-11T12:25:28.587Z,14.10
2023-04-11T12:27:55.376Z,12.50
2023-04-11T12:30:22.001Z,12.60
2023-04-11T12:32:48.761Z,15.80
2023-04-11T12:35:15.426Z,16.50
2023-04-11T12:37:42.263Z,12.70
2023-04-11T12:40:15.474Z,12.70
2023-04-11T12:42:53.192Z,12.70
2023-04-11T12:45:20.381Z,13.60
2023-04-11T12:47:47.937Z,12.90
2023-04-11T12:50:14.680Z,16.30
2023-04-11T12:52:41.894Z,14.50
2023-04-11T12:55:09.548Z,16.00
2023-04-11T12:57:36.724Z,12.80
2023-04-11T13:00:11.721Z,13.70
2023-04-11T13:02:43.760Z,12.90
2023-04-11T13:05:14.082Z,13.30
2023-04-11T13:07:41.190Z,11.00
2023-04-11T13:10:08.152Z,15.90
2023-04-11T13:12:39.766Z,12.50
2023-04-11T13:15:07.412Z,12.50
2023-04-11T13:17:34.060Z,12.60
2023-04-11T13:20:00.662Z,15.00
2023-04-11T13:22:27.285Z,15.60
2023-04-11T13:24:53.979Z,15.90
2023-04-11T13:27:22.095Z,14.70
2023-04-11T13:29:48.817Z,14.60
2023-04-11T13:32:15.712Z,14.30
2023-04-11T13:34:42.581Z,15.10
2023-04-11T13:37:09.326Z,12.40
2023-04-11T13:39:37.281Z,12.40
2023-04-11T13:42:04.072Z,15.40
2023-04-11T13:44:30.700Z,12.50
2023-04-11T13:46:57.353Z,14.20
2023-04-11T13:49:24.231Z,15.40
2023-04-11T13:51:51.148Z,13.30
2023-04-11T13:54:17.763Z,15.20
2023-04-11T13:56:44.390Z,15.80
2023-04-11T13:59:11.618Z,14.20
2023-04-11T14:01:38.265Z,13.80
2023-04-11T14:04:05.239Z,14.60
2023-04-11T14:06:32.021Z,12.60
2023-04-11T14:08:58.958Z,13.60
2023-04-11T14:11:25.783Z,14.20
2023-04-11T14:13:52.428Z,14.80
2023-04-11T14:16:19.201Z,15.10
2023-04-11T14:18:46.053Z,14.50
2023-04-11T14:21:12.856Z,13.90
2023-04-11T14:23:39.459Z,11.80
2023-04-11T14:26:06.464Z,12.00
2023-04-11T14:28:33.740Z,12.10
2023-04-11T14:31:00.516Z,14.30
2023-04-11T14:33:27.155Z,14.20
2023-04-11T14:35:53.972Z,14.10
2023-04-11T14:38:22.981Z,14.40
2023-04-11T14:40:49.613Z,12.60
2023-04-11T14:43:16.919Z,14.90
2023-04-11T14:45:43.651Z,15.10
2023-04-11T14:48:10.490Z,14.90
2023-04-11T14:50:37.106Z,15.30
2023-04-11T14:53:03.695Z,16.10
2023-04-11T14:55:30.269Z,12.00
2023-04-11T14:57:56.954Z,14.60
2023-04-11T15:00:24.640Z,13.60
2023-04-11T15:02:52.675Z,13.30
2023-04-11T15:05:20.025Z,11.90
2023-04-11T15:07:48.139Z,14.00
2023-04-11T15:10:15.433Z,13.80
2023-04-11T15:12:42.117Z,14.50
2023-04-11T15:15:09.496Z,12.30
2023-04-11T15:17:43.760Z,12.30
2023-04-11T15:20:11.904Z,12.20
2023-04-11T15:22:40.865Z,12.20
2023-04-11T15:25:08.935Z,12.30
2023-04-11T15:27:36.543Z,12.20
2023-04-11T15:30:03.972Z,12.30
2023-04-11T15:32:30.983Z,12.30
2023-04-11T15:34:58.509Z,12.30
2023-04-11T15:37:26.166Z,12.20
2023-04-11T15:39:53.470Z,12.20
2023-04-11T15:42:20.140Z,12.20
2023-04-11T15:44:46.882Z,12.20
2023-04-11T15:47:13.799Z,12.90
2023-04-11T15:49:41.390Z,12.20
2023-04-11T15:52:08.068Z,12.30
2023-04-11T15:54:34.717Z,13.80
2023-04-11T15:57:02.380Z,12.50
2023-04-11T15:59:29.509Z,12.50
2023-04-11T16:01:56.649Z,12.40
2023-04-11T16:04:23.517Z,12.30
2023-04-11T16:06:51.162Z,12.20
2023-04-11T16:09:17.857Z,12.00
2023-04-11T16:11:44.510Z,12.20
2023-04-11T16:14:11.475Z,11.90
2023-04-11T16:16:38.297Z,11.80
2023-04-11T16:19:05.839Z,11.80
2023-04-11T16:21:32.571Z,11.80
2023-04-11T16:23:59.476Z,11.80
2023-04-11T16:26:26.972Z,11.70
2023-04-11T16:28:53.663Z,11.80
2023-04-11T16:31:24.653Z,11.70
2023-04-11T16:33:52.708Z,13.10
2023-04-11T16:36:20.508Z,11.80
2023-04-11T16:38:47.487Z,11.80
2023-04-11T16:41:15.492Z,11.70
2023-04-11T16:43:42.284Z,11.70
2023-04-11T16:46:13.783Z,11.60
2023-04-11T16:48:41.217Z,9.90
2023-04-11T16:51:09.102Z,11.50
2023-04-11T16:53:35.898Z,11.40
2023-04-11T16:56:02.549Z,11.60
2023-04-11T16:58:29.268Z,11.40
2023-04-11T17:00:55.954Z,11.30
2023-04-11T17:03:23.075Z,11.30
2023-04-11T17:05:50.156Z,11.20
2023-04-11T17:08:17.591Z,11.20
2023-04-11T17:10:44.397Z,11.10
2023-04-11T17:13:14.810Z,11.10
2023-04-11T17:15:41.577Z,11.00
2023-04-11T17:18:08.688Z,10.90
2023-04-11T17:20:36.118Z,10.90
2023-04-11T17:23:03.022Z,10.80
2023-04-11T17:25:30.322Z,10.80
2023-04-11T17:27:57.374Z,10.80
2023-04-11T17:30:23.981Z,10.70
2023-04-11T17:32:50.841Z,10.70
2023-04-11T17:35:17.472Z,10.50
2023-04-11T17:37:44.190Z,10.50
2023-04-11T17:40:14.352Z,10.40
2023-04-11T17:42:41.578Z,10.40
2023-04-11T17:45:17.601Z,10.40
2023-04-11T17:47:45.309Z,10.30
2023-04-11T17:50:12.998Z,10.20
2023-04-11T17:52:41.217Z,10.10
2023-04-11T17:55:08.887Z,10.10
2023-04-11T17:57:35.852Z,10.00
2023-04-11T18:00:04.312Z,9.90
2023-04-11T18:02:32.812Z,9.90
2023-04-11T18:05:02.234Z,9.80
2023-04-11T18:07:30.781Z,9.80
2023-04-11T18:09:58.695Z,9.70
2023-04-11T18:12:29.617Z,9.60
2023-04-11T18:14:57.120Z,9.50
2023-04-11T18:17:23.837Z,9.50
2023-04-11T18:19:50.599Z,9.40
2023-04-11T18:22:17.344Z,9.30
2023-04-11T18:24:44.034Z,9.20
2023-04-11T18:27:11.384Z,9.20
2023-04-11T18:29:38.986Z,9.20
2023-04-11T18:32:05.949Z,9.10
2023-04-11T18:34:32.585Z,9.00
2023-04-11T18:36:59.203Z,8.90
2023-04-11T18:39:25.996Z,8.90
2023-04-11T18:41:52.821Z,8.80
2023-04-11T18:44:19.740Z,11.00
2023-04-11T18:46:46.591Z,8.80
2023-04-11T18:49:16.554Z,11.30
2023-04-11T18:51:44.377Z,8.70
2023-04-11T18:54:11.099Z,8.60
2023-04-11T18:56:40.234Z,8.60
2023-04-11T18:59:09.622Z,8.60
2023-04-11T19:01:37.090Z,9.50
2023-04-11T19:04:04.112Z,8.70
2023-04-11T19:06:31.873Z,8.50
2023-04-11T19:08:58.513Z,8.50
2023-04-11T19:11:25.386Z,8.40
2023-04-11T19:13:54.646Z,8.40
2023-04-11T19:16:21.628Z,8.30
2023-04-11T19:18:48.346Z,8.30
2023-04-11T19:21:15.117Z,8.20
2023-04-11T19:23:41.732Z,8.20
2023-04-11T19:26:08.658Z,9.60
2023-04-11T19:28:35.684Z,8.20
2023-04-11T19:31:02.630Z,9.20
2023-04-11T19:33:29.391Z,8.20
2023-04-11T19:35:56.450Z,8.20
2023-04-11T19:38:23.389Z,8.30
2023-04-11T19:40:50.033Z,8.30
2023-04-11T19:43:16.739Z,9.70
2023-04-11T19:45:44.185Z,8.30
2023-04-11T19:48:11.934Z,9.90
2023-04-11T19:50:38.656Z,8.30
2023-04-11T19:53:05.670Z,8.30
2023-04-11T19:55:32.428Z,8.30
2023-04-11T19:57:59.162Z,8.30
2023-04-11T20:00:27.272Z,8.30
2023-04-11T20:02:55.117Z,8.30
2023-04-11T20:05:22.457Z,8.30
2023-04-11T20:07:49.339Z,8.40
2023-04-11T20:10:17.317Z,8.40
2023-04-11T20:12:44.325Z,9.80
2023-04-11T20:15:11.308Z,8.00
2023-04-11T20:17:38.289Z,7.90
2023-04-11T20:20:06.633Z,7.80
2023-04-11T20:22:33.432Z,7.80
2023-04-11T20:25:00.262Z,7.70
2023-04-11T20:27:28.327Z,7.70
2023-04-11T20:29:56.736Z,7.80
2023-04-11T20:32:23.692Z,7.80
2023-04-11T20:34:50.703Z,7.80
2023-04-11T20:37:18.987Z,7.80
2023-04-11T20:39:45.826Z,7.80
2023-04-11T20:42:12.555Z,7.70
2023-04-11T20:44:39.511Z,7.60
2023-04-11T20:47:07.533Z,7.50
2023-04-11T20:49:34.357Z,7.50
2023-04-11T20:52:01.372Z,7.50
2023-04-11T20:54:28.433Z,7.50
2023-04-11T20:56:56.148Z,7.50
2023-04-11T20:59:23.273Z,7.60
2023-04-11T21:01:50.215Z,7.60
2023-04-11T21:04:18.778Z,7.60
2023-04-11T21:06:45.983Z,7.50
2023-04-11T21:09:12.957Z,7.50
2023-04-11T21:11:39.551Z,7.60
2023-04-11T21:14:06.811Z,7.60
2023-04-11T21:16:34.072Z,7.70
2023-04-11T21:19:00.919Z,7.70
2023-04-11T21:21:28.283Z,7.80
2023-04-11T21:23:55.302Z,7.70
2023-04-11T21:26:23.395Z,7.70
2023-04-11T21:28:50.234Z,8.50
2023-04-11T21:31:17.243Z,7.60
2023-04-11T21:33:45.287Z,7.60
2023-04-11T21:36:12.111Z,7.60
2023-04-11T21:38:38.799Z,7.50
2023-04-11T21:41:05.800Z,8.70
2023-04-11T21:43:32.430Z,7.60
2023-04-11T21:45:59.330Z,8.10
2023-04-11T21:48:25.968Z,7.70
2023-04-11T21:50:52.967Z,7.70
2023-04-11T21:53:20.256Z,7.70
2023-04-11T21:55:47.020Z,7.70
2023-04-11T21:58:28.008Z,7.70
2023-04-11T22:00:56.095Z,7.80
2023-04-11T22:03:23.685Z,8.00
2023-04-11T22:05:52.298Z,7.90
2023-04-11T22:08:20.371Z,7.70
2023-04-11T22:10:48.294Z,7.70
2023-04-11T22:13:16.875Z,7.60
2023-04-11T22:15:44.530Z,7.60
2023-04-11T22:18:11.917Z,7.70
2023-04-11T22:20:40.882Z,7.70
2023-04-11T22:23:09.310Z,7.70
2023-04-11T22:25:36.805Z,7.70
2023-04-11T22:28:04.088Z,7.80
2023-04-11T22:30:31.418Z,7.80
2023-04-11T22:32:58.080Z,7.80
2023-04-11T22:35:26.046Z,7.70
2023-04-11T22:37:53.749Z,7.70
2023-04-11T22:40:22.399Z,9.00
2023-04-11T22:42:50.758Z,7.70
2023-04-11T22:45:21.326Z,7.60
2023-04-11T22:47:48.218Z,7.60
2023-04-11T22:50:17.946Z,7.60
2023-04-11T22:52:44.676Z,7.50
2023-04-11T22:55:11.737Z,7.50
2023-04-11T22:57:38.568Z,7.60
2023-04-11T23:00:07.149Z,7.60
2023-04-11T23:02:36.152Z,7.60
2023-04-11T23:05:03.778Z,7.60
2023-04-11T23:07:34.496Z,7.60
2023-04-11T23:10:02.614Z,7.60
2023-04-11T23:12:29.483Z,7.70
2023-04-11T23:14:56.513Z,7.70
2023-04-11T23:17:24.039Z,7.70
2023-04-11T23:19:51.146Z,8.60
2023-04-11T23:22:18.521Z,7.70
2023-04-11T23:24:45.606Z,7.80
2023-04-11T23:27:13.100Z,7.70
2023-04-11T23:29:39.921Z,7.80
2023-04-11T23:32:07.588Z,7.80
2023-04-11T23:34:34.519Z,7.70
2023-04-11T23:37:01.250Z,7.80
2023-04-11T23:39:28.023Z,7.80
2023-04-11T23:41:54.761Z,7.80
2023-04-11T23:44:21.827Z,7.70
2023-04-11T23:46:48.522Z,7.70
2023-04-11T23:49:15.588Z,7.70
2023-04-11T23:51:42.432Z,7.70
2023-04-11T23:54:09.535Z,7.70
2023-04-11T23:56:36.132Z,7.70
2023-04-11T23:59:02.788Z,7.70
